Time;durP1;ratioP1;P1;durP2;ratioP2;P2;SDS_P1;SDS_P2;PMS_P1;PMS_P2;Temp;Humidity;BMP_temperature;BMP_pressure;BME280_temperature;BME280_humidity;BME280_pressure;Samples;Min_cycle;Max_cycle;Signal;HPM_P1;HPM_P2
2022/10/29 00:00:47;;;;;;;13.32;8.20;;;11.50;99.90;;;;;;5075595;28;20212;-75
2022/10/29 00:03:13;;;;;;;14.15;8.73;;;11.50;99.90;;;;;;5074049;28;20181;-75
2022/10/29 00:05:38;;;;;;;12.63;8.27;;;11.60;99.90;;;;;;5075136;28;20311;-75
2022/10/29 00:08:04;;;;;;;11.63;8.15;;;11.60;99.90;;;;;;5074973;28;20224;-75
2022/10/29 00:10:29;;;;;;;14.65;8.18;;;11.50;99.90;;;;;;5075006;28;20177;-75
2022/10/29 00:12:58;;;;;;;11.35;7.88;;;11.50;99.90;;;;;;5074109;28;20185;-75
2022/10/29 00:15:24;;;;;;;12.90;7.82;;;11.60;99.90;;;;;;5074553;28;20209;-75
2022/10/29 00:17:49;;;;;;;13.27;7.13;;;11.60;99.90;;;;;;5075050;28;20280;-75
2022/10/29 00:20:15;;;;;;;8.07;7.22;;;11.60;99.90;;;;;;5073970;28;20181;-75
2022/10/29 00:23:15;;;;;;;14.05;7.78;;;11.60;99.90;;;;;;5073918;28;20184;-74
2022/10/29 00:25:41;;;;;;;14.05;8.18;;;11.60;99.90;;;;;;5074915;28;20181;-73
2022/10/29 00:28:06;;;;;;;12.25;7.30;;;11.60;99.90;;;;;;5074797;28;20209;-74
2022/10/29 00:30:34;;;;;;;10.95;7.97;;;11.60;99.90;;;;;;5073706;28;20170;-74
2022/10/29 00:32:59;;;;;;;11.32;7.75;;;11.70;99.90;;;;;;5073378;28;20213;-74
2022/10/29 00:35:25;;;;;;;11.00;6.60;;;11.70;99.90;;;;;;5073662;28;20193;-74
2022/10/29 00:37:51;;;;;;;13.15;6.93;;;11.70;99.90;;;;;;5074006;28;20255;-74
2022/10/29 00:40:17;;;;;;;13.15;6.55;;;11.80;99.90;;;;;;5074767;28;20180;-74
2022/10/29 00:42:43;;;;;;;9.25;6.05;;;11.70;99.90;;;;;;5073248;28;20199;-74
2022/10/29 00:45:18;;;;;;;11.32;6.35;;;11.80;99.90;;;;;;5073237;28;20248;-74
2022/10/29 00:47:45;;;;;;;9.60;6.38;;;11.80;99.90;;;;;;5073635;28;20223;-74
2022/10/29 00:50:13;;;;;;;16.48;7.43;;;11.80;99.90;;;;;;5074505;28;20591;-74
2022/10/29 00:52:44;;;;;;;10.90;6.80;;;11.80;99.90;;;;;;5073428;28;20398;-74
2022/10/29 00:55:14;;;;;;;11.20;7.55;;;11.70;99.90;;;;;;5073106;28;20173;-74
2022/10/29 00:57:45;;;;;;;13.48;7.90;;;11.70;99.90;;;;;;5074475;28;20200;-73
2022/10/29 01:00:13;;;;;;;10.73;7.15;;;11.70;99.90;;;;;;5074492;28;20161;-73
2022/10/29 01:02:39;;;;;;;11.60;6.63;;;11.70;99.90;;;;;;5056476;28;20215;-73
2022/10/29 01:05:06;;;;;;;10.88;6.97;;;11.70;99.90;;;;;;5073095;28;20177;-73
2022/10/29 01:07:32;;;;;;;7.72;6.72;;;11.60;99.90;;;;;;5072877;28;20243;-73
2022/10/29 01:09:58;;;;;;;7.20;6.50;;;11.60;99.90;;;;;;5074644;28;20643;-73
2022/10/29 01:12:55;;;;;;;13.27;6.57;;;11.60;99.90;;;;;;5073028;28;20262;-73
2022/10/29 01:16:14;;;;;;;7.80;6.68;;;11.60;99.90;;;;;;5073714;28;20252;-74
2022/10/29 01:19:04;;;;;;;11.30;8.00;;;11.50;99.90;;;;;;5072510;28;20292;-73
2022/10/29 01:21:36;;;;;;;12.00;7.10;;;11.40;99.90;;;;;;5073744;28;20164;-73
2022/10/29 01:24:07;;;;;;;7.40;6.40;;;11.30;99.90;;;;;;5072529;28;20158;-74
2022/10/29 01:26:46;;;;;;;11.55;6.80;;;11.20;99.90;;;;;;5073676;28;20223;-74
2022/10/29 01:29:29;;;;;;;12.10;6.70;;;11.20;99.90;;;;;;5073294;28;20191;-75
2022/10/29 01:32:15;;;;;;;10.07;6.50;;;11.20;99.90;;;;;;5073211;28;20235;-73
2022/10/29 01:34:57;;;;;;;8.80;6.47;;;11.10;99.90;;;;;;5073824;28;20180;-73
2022/10/29 01:37:34;;;;;;;6.97;6.28;;;11.20;99.90;;;;;;5073143;28;20295;-73
2022/10/29 01:40:16;;;;;;;15.07;6.45;;;11.10;99.90;;;;;;5073755;28;20174;-72
2022/10/29 01:43:31;;;;;;;12.73;5.95;;;11.10;99.90;;;;;;5073776;28;20178;-73
2022/10/29 01:46:06;;;;;;;15.68;6.07;;;11.00;99.90;;;;;;5074097;28;20237;-72
2022/10/29 01:48:35;;;;;;;8.32;5.70;;;11.00;99.90;;;;;;5072192;28;20205;-73
2022/10/29 01:51:14;;;;;;;11.32;5.50;;;10.90;99.90;;;;;;5073399;28;20223;-73
2022/10/29 01:53:40;;;;;;;5.82;5.35;;;10.90;99.90;;;;;;5073001;28;20165;-73
2022/10/29 01:56:06;;;;;;;6.88;5.53;;;10.80;99.90;;;;;;5072055;28;20181;-72
2022/10/29 01:58:34;;;;;;;5.97;5.47;;;10.80;99.90;;;;;;5072091;28;20217;-73
2022/10/29 02:01:03;;;;;;;6.20;5.60;;;10.70;99.90;;;;;;5072084;28;20173;-73
2022/10/29 02:04:17;;;;;;;9.35;5.95;;;10.70;99.90;;;;;;5072067;28;20174;-73
2022/10/29 02:07:00;;;;;;;8.70;5.78;;;10.70;99.90;;;;;;5055065;28;20240;-72
2022/10/29 02:09:39;;;;;;;7.22;6.35;;;10.60;99.90;;;;;;5071937;28;20194;-73
2022/10/29 02:12:22;;;;;;;7.95;5.10;;;10.60;99.90;;;;;;5071985;28;20196;-74
2022/10/29 02:14:57;;;;;;;6.45;5.10;;;10.60;99.90;;;;;;5078189;28;20201;-72
2022/10/29 02:17:23;;;;;;;7.35;5.50;;;10.60;99.90;;;;;;5076039;28;20223;-73
2022/10/29 02:19:49;;;;;;;10.43;5.47;;;10.60;99.90;;;;;;5077652;28;20177;-73
2022/10/29 02:22:14;;;;;;;7.90;5.50;;;10.60;99.90;;;;;;5076087;28;20207;-75
2022/10/29 02:24:40;;;;;;;7.45;5.05;;;10.60;99.90;;;;;;5077428;28;20536;-74
2022/10/29 02:27:06;;;;;;;6.70;5.50;;;10.60;99.90;;;;;;5075712;28;20209;-74
2022/10/29 02:29:32;;;;;;;7.93;4.88;;;10.60;99.90;;;;;;5075842;28;20178;-74
2022/10/29 02:31:58;;;;;;;7.88;5.43;;;10.60;99.90;;;;;;5076091;28;20748;-74
2022/10/29 02:34:23;;;;;;;7.15;5.15;;;10.60;99.90;;;;;;5075717;28;20181;-74
2022/10/29 02:36:49;;;;;;;5.85;4.82;;;10.50;99.90;;;;;;5077118;28;20256;-74
2022/10/29 02:39:14;;;;;;;8.77;6.00;;;10.50;99.90;;;;;;5075535;28;20220;-74
2022/10/29 02:41:40;;;;;;;11.13;5.53;;;10.60;99.90;;;;;;5075544;28;20227;-74
2022/10/29 02:44:05;;;;;;;9.63;5.10;;;10.50;99.90;;;;;;5077088;28;20642;-74
2022/10/29 02:46:34;;;;;;;8.93;5.40;;;10.50;99.90;;;;;;5075535;28;20204;-74
2022/10/29 02:49:00;;;;;;;5.57;5.07;;;10.50;99.90;;;;;;5076826;28;20225;-74
2022/10/29 02:51:26;;;;;;;12.38;5.60;;;10.40;99.90;;;;;;5076167;28;20216;-74
2022/10/29 02:53:51;;;;;;;8.60;5.55;;;10.40;99.90;;;;;;5076738;28;20174;-74
2022/10/29 02:56:17;;;;;;;6.97;5.18;;;10.40;99.90;;;;;;5075518;28;20268;-74
2022/10/29 02:58:42;;;;;;;7.03;5.53;;;10.40;99.90;;;;;;5076601;28;20224;-74
2022/10/29 03:01:08;;;;;;;7.55;5.28;;;10.40;99.90;;;;;;5076618;28;20189;-74
2022/10/29 03:03:34;;;;;;;12.15;5.90;;;10.40;99.90;;;;;;5075965;28;20177;-74
2022/10/29 03:05:59;;;;;;;8.18;5.85;;;10.30;99.90;;;;;;5075358;28;20342;-73
2022/10/29 03:08:25;;;;;;;9.45;5.45;;;10.30;99.90;;;;;;5074910;28;20276;-73
2022/10/29 03:10:50;;;;;;;10.52;5.18;;;10.20;99.90;;;;;;5076172;28;20176;-73
2022/10/29 03:13:16;;;;;;;9.40;4.97;;;10.20;99.90;;;;;;5076184;28;20182;-73
2022/10/29 03:15:44;;;;;;;10.02;5.47;;;10.20;99.90;;;;;;5074886;28;20185;-73
2022/10/29 03:18:10;;;;;;;9.82;5.82;;;10.10;99.90;;;;;;5075050;28;20205;-73
2022/10/29 03:20:35;;;;;;;9.32;5.70;;;10.10;99.90;;;;;;5075114;28;20177;-73
2022/10/29 03:23:01;;;;;;;10.30;5.85;;;10.10;99.90;;;;;;5074658;28;20184;-73
2022/10/29 03:25:26;;;;;;;7.55;6.13;;;10.10;99.90;;;;;;5074575;28;20177;-73
2022/10/29 03:28:40;;;;;;;7.38;5.90;;;10.10;99.90;;;;;;5074597;28;20216;-74
2022/10/29 03:31:05;;;;;;;9.13;5.38;;;10.10;99.90;;;;;;5076695;28;20186;-72
2022/10/29 03:33:31;;;;;;;8.35;5.22;;;10.10;99.90;;;;;;5074951;28;20250;-73
2022/10/29 03:36:02;;;;;;;9.32;4.95;;;10.10;99.90;;;;;;5075106;28;20224;-73
2022/10/29 03:38:28;;;;;;;5.82;4.25;;;10.00;99.90;;;;;;5074501;28;20198;-73
2022/10/29 03:40:54;;;;;;;5.00;4.35;;;10.00;99.90;;;;;;5074776;28;20200;-73
2022/10/29 03:43:20;;;;;;;7.53;4.97;;;10.00;99.90;;;;;;5074663;28;20186;-73
2022/10/29 03:45:50;;;;;;;6.95;4.43;;;9.90;99.90;;;;;;5075149;28;20173;-73
2022/10/29 03:48:16;;;;;;;4.78;4.28;;;10.00;99.90;;;;;;5074208;28;20287;-73
2022/10/29 03:50:41;;;;;;;5.97;4.20;;;10.00;99.90;;;;;;5074590;28;20177;-73
2022/10/29 03:53:07;;;;;;;24.35;5.63;;;10.10;99.90;;;;;;5075112;28;20174;-73
2022/10/29 03:55:33;;;;;;;11.63;4.72;;;10.10;99.90;;;;;;5074513;28;20657;-73
2022/10/29 03:57:58;;;;;;;6.60;4.50;;;10.10;99.90;;;;;;5075614;28;20221;-73
2022/10/29 04:00:24;;;;;;;50.72;5.63;;;10.10;99.90;;;;;;5074048;28;20177;-73
2022/10/29 04:02:50;;;;;;;53.13;5.45;;;10.20;99.90;;;;;;5074256;28;20180;-73
2022/10/29 04:05:15;;;;;;;84.50;6.28;;;10.20;99.90;;;;;;5074077;28;20186;-73
2022/10/29 04:07:41;;;;;;;28.30;6.10;;;10.10;99.90;;;;;;5073891;28;20225;-73
2022/10/29 04:10:07;;;;;;;54.90;6.28;;;10.10;99.90;;;;;;5075942;28;20158;-73
2022/10/29 04:12:32;;;;;;;21.20;5.35;;;10.10;99.90;;;;;;5073868;28;20642;-73
2022/10/29 04:14:58;;;;;;;13.00;5.53;;;10.10;99.90;;;;;;5074151;28;20177;-73
2022/10/29 04:17:23;;;;;;;89.80;6.53;;;10.10;99.90;;;;;;5073668;28;20204;-73
2022/10/29 04:19:49;;;;;;;52.58;5.97;;;10.10;99.90;;;;;;5074271;28;20251;-73
2022/10/29 04:22:14;;;;;;;85.22;5.93;;;10.20;99.90;;;;;;5075199;28;20184;-73
2022/10/29 04:24:40;;;;;;;109.97;6.57;;;10.10;99.90;;;;;;5074872;28;20216;-73
2022/10/29 04:27:05;;;;;;;133.65;7.15;;;10.20;99.90;;;;;;5074854;28;20209;-73
2022/10/29 04:29:31;;;;;;;174.68;8.93;;;10.00;99.90;;;;;;5074912;28;20233;-73
2022/10/29 04:31:56;;;;;;;51.17;5.55;;;10.00;99.90;;;;;;5073580;28;20227;-73
2022/10/29 04:34:22;;;;;;;34.67;5.40;;;10.00;99.90;;;;;;5074878;28;20166;-73
2022/10/29 04:36:48;;;;;;;139.32;7.82;;;10.00;99.90;;;;;;5073403;28;20182;-73
2022/10/29 04:39:13;;;;;;;63.17;6.70;;;9.90;99.90;;;;;;5073901;28;20173;-73
2022/10/29 04:41:39;;;;;;;7.90;4.70;;;9.80;99.90;;;;;;5073265;28;20276;-73
2022/10/29 04:44:04;;;;;;;4.90;4.32;;;9.80;99.90;;;;;;5073210;28;20264;-73
2022/10/29 04:46:30;;;;;;;5.53;4.00;;;9.90;99.90;;;;;;5073476;28;20276;-73
2022/10/29 04:48:55;;;;;;;4.55;4.25;;;9.90;99.90;;;;;;5073455;28;20204;-73
2022/10/29 04:51:23;;;;;;;12.73;11.50;;;9.80;99.90;;;;;;5073893;28;20174;-73
2022/10/29 04:53:49;;;;;;;7.20;6.60;;;9.90;99.90;;;;;;5073990;28;20178;-73
2022/10/29 04:56:15;;;;;;;7.38;6.78;;;9.80;99.90;;;;;;5074525;28;20195;-74
2022/10/29 04:58:41;;;;;;;5.60;5.10;;;9.80;99.90;;;;;;5073251;28;20197;-74
2022/10/29 05:01:06;;;;;;;4.13;3.83;;;9.90;99.90;;;;;;5072781;28;20280;-74
2022/10/29 05:03:33;;;;;;;5.13;4.70;;;9.90;99.90;;;;;;5072806;28;20223;-74
2022/10/29 05:06:02;;;;;;;5.47;4.78;;;9.90;99.90;;;;;;5073125;28;20173;-74
2022/10/29 05:08:27;;;;;;;4.68;4.18;;;9.90;99.90;;;;;;5072563;28;20224;-74
2022/10/29 05:10:53;;;;;;;4.50;4.07;;;9.90;99.90;;;;;;5072687;28;20177;-74
2022/10/29 05:13:18;;;;;;;5.75;5.35;;;9.80;99.90;;;;;;5073024;28;20178;-74
2022/10/29 05:15:49;;;;;;;5.05;4.65;;;9.80;99.90;;;;;;5072703;28;20181;-74
2022/10/29 05:18:15;;;;;;;6.05;5.10;;;9.80;99.90;;;;;;5074267;28;20193;-74
2022/10/29 05:20:40;;;;;;;10.82;4.60;;;9.80;99.90;;;;;;5073190;28;20189;-74
2022/10/29 05:23:08;;;;;;;13.50;5.00;;;9.80;99.90;;;;;;5072837;28;20173;-74
2022/10/29 05:25:36;;;;;;;14.88;5.18;;;9.70;99.90;;;;;;5072619;28;20576;-74
2022/10/29 05:28:03;;;;;;;9.73;5.85;;;9.70;99.90;;;;;;5073797;28;20248;-74
2022/10/29 05:30:28;;;;;;;7.63;5.40;;;9.70;99.90;;;;;;5073993;28;20174;-74
2022/10/29 05:32:54;;;;;;;18.55;5.40;;;9.70;99.90;;;;;;5074162;28;20193;-74
2022/10/29 05:35:19;;;;;;;7.88;5.90;;;9.60;99.90;;;;;;5073090;28;20184;-74
2022/10/29 05:38:08;;;;;;;5.60;5.03;;;9.50;99.90;;;;;;5072176;28;20197;-74
2022/10/29 05:40:34;;;;;;;5.65;4.72;;;9.40;99.90;;;;;;5073142;28;20177;-74
2022/10/29 05:42:59;;;;;;;7.07;4.25;;;9.40;99.90;;;;;;5073417;28;20668;-74
2022/10/29 05:45:25;;;;;;;13.80;4.90;;;9.40;99.90;;;;;;5072236;28;20617;-74
2022/10/29 05:47:58;;;;;;;18.60;4.85;;;9.50;99.90;;;;;;5073312;28;20333;-74
2022/10/29 05:50:24;;;;;;;9.85;5.10;;;9.50;99.90;;;;;;5073029;28;20538;-74
2022/10/29 05:53:05;;;;;;;47.60;6.13;;;9.50;99.90;;;;;;5072367;28;20191;-74
2022/10/29 05:55:32;;;;;;;7.78;5.25;;;9.50;99.90;;;;;;5072161;28;20272;-74
2022/10/29 05:57:59;;;;;;;32.97;6.93;;;9.60;99.90;;;;;;5072131;28;20290;-72
2022/10/29 06:00:27;;;;;;;19.38;10.75;;;9.60;99.90;;;;;;5072144;28;20188;-74
2022/10/29 06:02:52;;;;;;;12.98;10.27;;;9.60;99.90;;;;;;5073307;28;20174;-74
2022/10/29 06:05:18;;;;;;;17.13;13.25;;;9.70;99.90;;;;;;5072100;28;20223;-72
2022/10/29 06:07:44;;;;;;;16.80;9.95;;;9.70;99.90;;;;;;5072363;28;20220;-73
2022/10/29 06:10:25;;;;;;;18.48;11.07;;;9.70;99.90;;;;;;5173643;27;20464;-72
2022/10/29 06:12:51;;;;;;;20.52;14.15;;;9.70;99.90;;;;;;5152777;27;20175;-72
2022/10/29 06:15:17;;;;;;;21.05;12.55;;;9.70;99.90;;;;;;5152723;27;20183;-72
2022/10/29 06:17:44;;;;;;;13.00;9.52;;;9.80;99.90;;;;;;5125697;28;20188;-77
2022/10/29 06:20:11;;;;;;;13.82;8.88;;;9.70;99.90;;;;;;5113619;28;20175;-72
2022/10/29 06:22:38;;;;;;;11.38;9.35;;;9.80;99.90;;;;;;5113630;28;20650;-71
2022/10/29 06:25:04;;;;;;;9.88;8.70;;;9.70;99.90;;;;;;5131586;28;20618;-72
2022/10/29 06:27:30;;;;;;;15.13;5.32;;;9.70;99.90;;;;;;5113600;28;20620;-75
2022/10/29 06:29:55;;;;;;;7.43;5.15;;;9.80;99.90;;;;;;5131636;28;20239;-73
2022/10/29 06:32:21;;;;;;;7.60;4.50;;;9.80;99.90;;;;;;5131535;27;20195;-73
2022/10/29 06:34:46;;;;;;;7.28;4.50;;;9.90;99.90;;;;;;5132437;28;20168;-73
2022/10/29 06:37:13;;;;;;;4.78;4.28;;;10.10;99.90;;;;;;5115142;28;20244;-73
2022/10/29 06:39:38;;;;;;;9.20;6.63;;;10.10;99.90;;;;;;5114387;28;20553;-73
2022/10/29 06:42:04;;;;;;;10.32;5.88;;;10.20;99.90;;;;;;5114440;28;20199;-73
2022/10/29 06:44:29;;;;;;;5.68;5.07;;;10.20;99.90;;;;;;5114276;28;20197;-73
2022/10/29 06:46:55;;;;;;;6.78;5.20;;;10.30;99.90;;;;;;5114328;27;20207;-73
2022/10/29 06:49:21;;;;;;;7.68;5.80;;;10.40;99.90;;;;;;5114248;28;20697;-73
2022/10/29 06:51:46;;;;;;;8.82;5.72;;;10.20;99.90;;;;;;5115189;28;20634;-73
2022/10/29 06:54:12;;;;;;;5.20;4.80;;;10.50;99.90;;;;;;5114857;28;20182;-73
2022/10/29 06:56:38;;;;;;;5.25;4.40;;;10.70;99.90;;;;;;5114978;28;20176;-73
2022/10/29 06:59:04;;;;;;;4.57;3.70;;;10.80;99.90;;;;;;5132519;27;20213;-73
2022/10/29 07:01:31;;;;;;;4.38;3.88;;;10.90;99.90;;;;;;5131890;28;20183;-73
2022/10/29 07:03:58;;;;;;;5.85;3.90;;;11.10;99.90;;;;;;5113918;28;20179;-73
2022/10/29 07:06:24;;;;;;;5.13;3.60;;;11.20;99.90;;;;;;5113004;28;20175;-73
2022/10/29 07:08:49;;;;;;;4.57;3.70;;;11.30;99.90;;;;;;5112116;28;20219;-73
2022/10/29 07:11:15;;;;;;;3.80;3.50;;;11.40;99.90;;;;;;5113488;28;20175;-73
2022/10/29 07:13:41;;;;;;;5.15;3.70;;;11.40;99.90;;;;;;5131259;28;20581;-73
2022/10/29 07:16:07;;;;;;;4.80;3.35;;;11.40;99.90;;;;;;5112260;28;20187;-73
2022/10/29 07:18:32;;;;;;;5.68;3.35;;;11.50;99.90;;;;;;5112145;28;20214;-73
2022/10/29 07:21:00;;;;;;;6.88;3.40;;;11.60;99.90;;;;;;5103028;28;20267;-74
2022/10/29 07:23:26;;;;;;;8.48;3.38;;;11.60;99.90;;;;;;5116864;28;20267;-73
2022/10/29 07:25:52;;;;;;;3.55;3.17;;;11.60;99.90;;;;;;5098752;28;20220;-72
2022/10/29 07:28:25;;;;;;;4.00;3.00;;;11.70;99.90;;;;;;5099035;28;20210;-72
2022/10/29 07:30:51;;;;;;;7.72;4.28;;;11.70;99.90;;;;;;5116651;28;20188;-72
2022/10/29 07:33:18;;;;;;;8.57;5.50;;;11.70;99.90;;;;;;5098866;28;20184;-72
2022/10/29 07:35:58;;;;;;;7.70;6.95;;;11.80;99.90;;;;;;5098366;28;20666;-72
2022/10/29 07:38:25;;;;;;;7.32;5.03;;;11.80;99.90;;;;;;5099072;28;20192;-71
2022/10/29 07:40:51;;;;;;;6.22;4.90;;;11.80;99.90;;;;;;5099035;28;20172;-73
2022/10/29 07:43:17;;;;;;;11.18;5.20;;;11.80;99.90;;;;;;5116759;28;20221;-73
2022/10/29 07:45:49;;;;;;;11.30;6.75;;;11.90;99.90;;;;;;5098580;28;20750;-73
2022/10/29 07:48:15;;;;;;;13.57;5.43;;;12.00;99.90;;;;;;5116701;28;20192;-73
2022/10/29 07:50:41;;;;;;;8.60;5.30;;;12.10;99.90;;;;;;5116553;28;20168;-73
2022/10/29 07:53:07;;;;;;;22.50;6.43;;;12.10;99.90;;;;;;5098105;28;20186;-71
2022/10/29 07:55:33;;;;;;;12.30;8.15;;;12.20;99.90;;;;;;5098894;28;20246;-71
2022/10/29 07:58:55;;;;;;;14.07;7.50;;;12.20;99.90;;;;;;5116237;28;20223;-72
2022/10/29 08:01:21;;;;;;;18.30;7.00;;;12.30;99.90;;;;;;5098611;28;20165;-73
2022/10/29 08:03:49;;;;;;;8.63;6.00;;;12.40;99.90;;;;;;5098470;28;20180;-73
2022/10/29 08:06:18;;;;;;;9.15;5.88;;;12.50;99.90;;;;;;5116318;28;20535;-73
2022/10/29 08:09:34;;;;;;;9.20;5.28;;;12.60;99.90;;;;;;5115780;28;20214;-75
2022/10/29 08:11:59;;;;;;;4.30;3.90;;;12.60;99.90;;;;;;5116323;28;20197;-76
2022/10/29 08:14:25;;;;;;;6.03;5.40;;;12.70;99.90;;;;;;5097931;28;20172;-73
2022/10/29 08:16:53;;;;;;;6.20;5.60;;;12.60;99.90;;;;;;5097646;28;20189;-75
2022/10/29 08:19:19;;;;;;;9.65;4.22;;;12.70;99.90;;;;;;5098090;28;20172;-75
2022/10/29 08:21:45;;;;;;;4.80;3.40;;;12.70;99.90;;;;;;5115726;28;20519;-75
2022/10/29 08:24:10;;;;;;;10.18;4.95;;;12.80;99.90;;;;;;5115563;28;20176;-74
2022/10/29 08:26:36;;;;;;;10.25;5.78;;;12.90;99.90;;;;;;5097563;28;20299;-75
2022/10/29 08:29:06;;;;;;;6.97;6.38;;;13.00;99.90;;;;;;5097377;28;20204;-75
2022/10/29 08:31:46;;;;;;;8.35;5.10;;;13.00;99.90;;;;;;5096731;28;20168;-74
2022/10/29 08:34:12;;;;;;;4.70;4.28;;;13.00;99.90;;;;;;5098000;28;20172;-75
2022/10/29 08:37:19;;;;;;;4.03;3.72;;;13.00;99.90;;;;;;5097619;28;20172;-75
2022/10/29 08:39:45;;;;;;;4.30;3.70;;;13.10;99.90;;;;;;5096980;28;20259;-75
2022/10/29 08:42:44;;;;;;;4.30;3.90;;;13.10;99.90;;;;;;5097131;28;20212;-75
2022/10/29 08:45:33;;;;;;;7.03;6.25;;;13.10;99.90;;;;;;5115295;28;20164;-75
2022/10/29 08:48:38;;;;;;;4.55;4.10;;;13.20;99.90;;;;;;5097713;28;20192;-73
2022/10/29 08:51:25;;;;;;;6.65;5.63;;;13.20;99.90;;;;;;5094568;28;20188;-75
2022/10/29 08:54:00;;;;;;;5.22;4.75;;;13.20;99.90;;;;;;5096883;28;20179;-75
2022/10/29 08:56:37;;;;;;;4.32;3.92;;;13.40;99.90;;;;;;5096745;28;20188;-74
2022/10/29 08:59:13;;;;;;;4.40;4.03;;;13.50;99.90;;;;;;5096682;28;20199;-74
2022/10/29 09:01:39;;;;;;;7.57;3.92;;;13.50;99.90;;;;;;5097466;28;20160;-75
2022/10/29 09:04:32;;;;;;;5.32;4.40;;;13.40;99.90;;;;;;5096600;28;20719;-75
2022/10/29 09:07:00;;;;;;;6.80;6.20;;;13.40;99.90;;;;;;5096450;28;20160;-74
2022/10/29 09:10:21;;;;;;;4.55;4.15;;;13.40;99.90;;;;;;5115712;28;20212;-75
2022/10/29 09:13:07;;;;;;;6.53;4.53;;;13.30;99.90;;;;;;5114960;28;20642;-75
2022/10/29 09:16:06;;;;;;;6.43;4.15;;;13.40;99.90;;;;;;5096526;28;20183;-73
2022/10/29 09:18:41;;;;;;;6.35;4.78;;;13.50;99.90;;;;;;5096740;28;20204;-73
2022/10/29 09:21:14;;;;;;;11.35;6.20;;;13.60;99.90;;;;;;5114691;28;20160;-73
2022/10/29 09:23:49;;;;;;;14.23;5.40;;;13.60;99.90;;;;;;5096210;28;20773;-73
2022/10/29 09:26:38;;;;;;;5.97;4.55;;;13.70;99.90;;;;;;5115306;28;20220;-74
2022/10/29 09:32:42;;;;;;;6.75;4.57;;;13.90;99.90;;;;;;5114812;28;20232;-74
2022/10/29 09:35:14;;;;;;;7.45;4.20;;;14.00;99.90;;;;;;5096960;28;20489;-74
2022/10/29 09:38:07;;;;;;;5.38;4.88;;;14.10;99.90;;;;;;5114261;28;20208;-73
2022/10/29 09:40:36;;;;;;;6.70;4.38;;;14.20;99.90;;;;;;5097051;28;20169;-75
2022/10/29 09:43:36;;;;;;;6.95;4.28;;;14.30;99.90;;;;;;5095952;28;20199;-72
2022/10/29 09:46:29;;;;;;;8.57;4.90;;;14.30;99.90;;;;;;5114644;28;20156;-73
2022/10/29 09:49:32;;;;;;;8.77;4.47;;;14.50;99.90;;;;;;5095928;28;20240;-73
2022/10/29 09:52:09;;;;;;;4.72;4.13;;;14.70;99.90;;;;;;5114756;28;20160;-74
2022/10/29 09:54:35;;;;;;;9.98;4.50;;;14.80;99.90;;;;;;5096395;28;20199;-73
2022/10/29 09:57:02;;;;;;;6.45;4.63;;;14.80;99.90;;;;;;5096268;28;20520;-73
2022/10/29 09:59:40;;;;;;;7.65;4.63;;;14.80;99.90;;;;;;5097103;28;20271;-73
2022/10/29 10:02:29;;;;;;;5.97;4.43;;;14.90;99.90;;;;;;5096440;28;20184;-73
2022/10/29 10:05:00;;;;;;;7.57;4.05;;;14.90;99.90;;;;;;5097242;28;20180;-73
2022/10/29 10:07:26;;;;;;;5.47;4.63;;;15.10;99.90;;;;;;5096380;28;20283;-73
2022/10/29 10:09:56;;;;;;;8.13;4.10;;;15.20;99.90;;;;;;5096753;28;20235;-73
2022/10/29 10:12:24;;;;;;;6.75;4.43;;;15.30;99.90;;;;;;5096018;28;20685;-73
2022/10/29 10:15:02;;;;;;;10.15;9.15;;;15.30;99.90;;;;;;5114374;28;20168;-73
2022/10/29 10:17:48;;;;;;;10.80;9.57;;;15.50;99.90;;;;;;5096613;28;20196;-73
2022/10/29 10:20:25;;;;;;;6.22;5.53;;;15.50;99.90;;;;;;5096422;28;20188;-73
2022/10/29 10:26:38;;;;;;;5.78;4.85;;;15.40;99.90;;;;;;5115265;28;20233;-73
2022/10/29 10:29:22;;;;;;;5.78;4.43;;;15.50;99.90;;;;;;5084988;28;20265;-73
2022/10/29 10:32:10;;;;;;;7.05;6.05;;;15.60;99.90;;;;;;5096803;28;20168;-73
2022/10/29 10:34:37;;;;;;;10.15;9.18;;;15.70;99.90;;;;;;5096345;28;20263;-73
2022/10/29 10:37:15;;;;;;;7.20;5.63;;;15.90;99.90;;;;;;5115234;28;20703;-73
2022/10/29 10:39:59;;;;;;;10.80;6.05;;;16.00;99.90;;;;;;5113400;28;20164;-73
2022/10/29 10:42:41;;;;;;;9.00;5.90;;;16.00;99.90;;;;;;5113821;28;20171;-73
2022/10/29 10:45:14;;;;;;;7.00;5.72;;;16.20;99.90;;;;;;5096329;28;20534;-73
2022/10/29 10:47:43;;;;;;;7.82;6.63;;;16.30;99.90;;;;;;5114195;28;20192;-73
2022/10/29 10:50:29;;;;;;;12.98;6.82;;;16.40;99.90;;;;;;5096381;28;20200;-73
2022/10/29 10:52:57;;;;;;;11.98;6.65;;;16.40;99.90;;;;;;5097031;28;20231;-73
2022/10/29 10:55:30;;;;;;;10.75;7.25;;;16.50;99.90;;;;;;5097344;28;20179;-73
2022/10/29 10:57:58;;;;;;;9.98;7.40;;;16.50;99.90;;;;;;5100412;28;20194;-73
2022/10/29 11:00:26;;;;;;;8.30;6.80;;;16.50;99.90;;;;;;5101152;28;20176;-73
2022/10/29 11:03:14;;;;;;;8.32;6.57;;;16.70;99.90;;;;;;5100718;28;20230;-73
2022/10/29 11:05:48;;;;;;;11.15;6.68;;;16.80;99.90;;;;;;5099859;28;20661;-73
2022/10/29 11:08:26;;;;;;;12.10;6.50;;;16.80;99.90;;;;;;5100405;28;20198;-73
2022/10/29 11:10:56;;;;;;;17.45;7.00;;;17.00;99.90;;;;;;5100553;28;20591;-73
2022/10/29 11:13:25;;;;;;;11.52;6.72;;;16.90;99.90;;;;;;5100262;28;20169;-73
2022/10/29 11:16:13;;;;;;;10.93;6.50;;;16.90;99.90;;;;;;5100694;28;20179;-73
2022/10/29 11:19:03;;;;;;;10.13;5.47;;;17.10;99.90;;;;;;5099104;28;20199;-73
2022/10/29 11:21:37;;;;;;;10.38;6.20;;;17.30;99.90;;;;;;5086264;28;20195;-73
2022/10/29 11:24:24;;;;;;;9.02;5.55;;;17.30;99.90;;;;;;5099152;28;20168;-73
2022/10/29 11:27:01;;;;;;;17.10;6.63;;;17.30;99.90;;;;;;5098727;28;20657;-75
2022/10/29 11:30:00;;;;;;;13.13;5.95;;;17.30;99.90;;;;;;5116633;28;20226;-74
2022/10/29 11:32:45;;;;;;;19.10;6.07;;;17.40;99.90;;;;;;5085283;28;20184;-75
2022/10/29 11:35:31;;;;;;;17.05;6.25;;;17.50;99.90;;;;;;5117169;28;20167;-75
2022/10/29 11:38:18;;;;;;;19.30;6.75;;;17.60;99.90;;;;;;5098693;28;20196;-75
2022/10/29 11:41:12;;;;;;;18.02;6.80;;;17.80;99.90;;;;;;5098338;28;20175;-75
2022/10/29 11:43:37;;;;;;;16.95;6.00;;;17.80;99.90;;;;;;5097421;28;20588;-75
2022/10/29 11:46:41;;;;;;;24.38;8.70;;;17.80;99.90;;;;;;5097972;28;20180;-72
2022/10/29 11:49:24;;;;;;;14.30;5.88;;;18.00;99.90;;;;;;5097816;28;20264;-72
2022/10/29 11:52:30;;;;;;;18.30;6.53;;;18.20;99.90;;;;;;5098087;28;20541;-72
2022/10/29 11:55:23;;;;;;;9.98;6.15;;;18.20;99.90;;;;;;5010922;28;20187;-74
2022/10/29 11:57:59;;;;;;;14.02;6.45;;;18.30;99.90;;;;;;5097874;28;20283;-74
2022/10/29 12:00:31;;;;;;;9.25;5.78;;;18.30;99.90;;;;;;5098201;28;20230;-74
2022/10/29 12:03:24;;;;;;;12.13;6.00;;;18.20;99.90;;;;;;5098657;28;20320;-74
2022/10/29 12:06:13;;;;;;;13.05;6.40;;;18.30;99.90;;;;;;5098641;28;20180;-74
2022/10/29 12:09:21;;;;;;;16.10;6.30;;;18.40;99.90;;;;;;5116204;28;20261;-75
2022/10/29 12:11:59;;;;;;;16.80;6.88;;;18.40;99.90;;;;;;5097964;28;20192;-75
2022/10/29 12:14:32;;;;;;;12.30;6.10;;;18.30;99.90;;;;;;5098240;28;20184;-75
2022/10/29 12:17:19;;;;;;;21.23;7.13;;;18.20;99.90;;;;;;5097446;28;20172;-74
2022/10/29 12:20:21;;;;;;;15.43;6.13;;;18.20;99.90;;;;;;5097637;28;20219;-75
2022/10/29 12:23:23;;;;;;;15.05;6.57;;;18.20;99.90;;;;;;5098535;28;20186;-72
2022/10/29 12:26:18;;;;;;;11.57;6.35;;;18.20;99.90;;;;;;5088483;28;20188;-72
2022/10/29 12:28:57;;;;;;;12.52;5.78;;;18.30;99.90;;;;;;5115663;28;20207;-72
2022/10/29 12:31:43;;;;;;;20.08;6.15;;;18.30;99.90;;;;;;5098347;28;20164;-72
2022/10/29 12:34:21;;;;;;;18.45;5.85;;;18.40;99.90;;;;;;5115541;28;20153;-72
2022/10/29 12:37:13;;;;;;;15.05;5.72;;;18.40;99.90;;;;;;5097995;28;20572;-72
2022/10/29 12:39:47;;;;;;;19.77;6.47;;;18.60;99.90;;;;;;5097936;28;20172;-72
2022/10/29 12:45:52;;;;;;;15.60;6.15;;;18.70;99.90;;;;;;5115592;28;20163;-72
2022/10/29 12:48:39;;;;;;;14.15;6.50;;;18.90;99.90;;;;;;5097365;28;20200;-72
2022/10/29 12:51:29;;;;;;;14.35;6.30;;;19.00;99.90;;;;;;5096993;28;20251;-75
2022/10/29 12:54:19;;;;;;;15.98;5.90;;;19.10;99.90;;;;;;5096874;28;20252;-74
2022/10/29 12:56:45;;;;;;;15.55;5.85;;;19.00;99.90;;;;;;5096775;28;20191;-72
2022/10/29 12:59:23;;;;;;;13.52;5.75;;;18.90;99.90;;;;;;5096611;28;20734;-72
2022/10/29 13:01:52;;;;;;;10.95;5.25;;;18.80;99.90;;;;;;5114928;28;20172;-72
2022/10/29 13:04:23;;;;;;;14.20;5.93;;;18.70;99.90;;;;;;5097514;28;20282;-72
2022/10/29 13:07:21;;;;;;;16.58;5.35;;;18.70;99.90;;;;;;5096880;28;20180;-73
2022/10/29 13:09:47;;;;;;;15.52;6.03;;;18.80;99.90;;;;;;5114694;28;20200;-73
2022/10/29 13:12:52;;;;;;;17.13;5.70;;;18.70;99.90;;;;;;5096380;28;20195;-73
2022/10/29 13:15:21;;;;;;;15.55;5.70;;;18.70;99.90;;;;;;5096450;28;20259;-73
2022/10/29 13:17:48;;;;;;;14.27;6.15;;;18.60;99.90;;;;;;5096281;28;20204;-74
2022/10/29 13:20:36;;;;;;;13.73;6.28;;;18.50;99.90;;;;;;5114778;28;20229;-73
2022/10/29 13:23:23;;;;;;;16.23;6.00;;;18.40;99.90;;;;;;5096305;28;20631;-73
2022/10/29 13:25:57;;;;;;;14.63;6.53;;;18.30;99.90;;;;;;5097110;28;20292;-73